createdAt,value
2022-11-13T00:00:54.665Z,100.00
2022-11-13T00:03:26.525Z,100.00
2022-11-13T00:05:58.063Z,100.00
2022-11-13T00:08:30.298Z,100.00
2022-11-13T00:11:02.193Z,100.00
2022-11-13T00:13:34.049Z,100.00
2022-11-13T00:16:05.556Z,100.00
2022-11-13T00:18:37.438Z,100.00
2022-11-13T00:21:08.938Z,100.00
2022-11-13T00:23:40.750Z,100.00
2022-11-13T00:26:12.769Z,100.00
2022-11-13T00:28:44.697Z,100.00
2022-11-13T00:31:16.254Z,100.00
2022-11-13T00:34:14.163Z,100.00
2022-11-13T00:36:39.588Z,100.00
2022-11-13T00:39:11.422Z,100.00
2022-11-13T00:41:42.945Z,100.00
2022-11-13T00:44:14.772Z,100.00
2022-11-13T00:46:46.274Z,100.00
2022-11-13T00:49:18.117Z,100.00
2022-11-13T00:51:49.625Z,100.00
2022-11-13T00:54:21.450Z,100.00
2022-11-13T00:56:53.010Z,100.00
2022-11-13T00:59:24.917Z,100.00
2022-11-13T01:01:56.546Z,100.00
2022-11-13T01:04:28.417Z,100.00
2022-11-13T01:06:59.958Z,100.00
2022-11-13T01:09:31.849Z,100.00
2022-11-13T01:12:03.345Z,100.00
2022-11-13T01:14:35.166Z,100.00
2022-11-13T01:17:06.655Z,100.00
2022-11-13T01:19:38.616Z,100.00
2022-11-13T01:22:10.154Z,100.00
2022-11-13T01:24:42.008Z,100.00
2022-11-13T01:27:15.402Z,100.00
2022-11-13T01:29:47.219Z,100.00
2022-11-13T01:32:18.721Z,100.00
2022-11-13T01:34:50.269Z,100.00
2022-11-13T01:37:21.757Z,100.00
2022-11-13T01:39:53.614Z,100.00
2022-11-13T01:42:25.122Z,100.00
2022-11-13T01:44:56.972Z,100.00
2022-11-13T01:47:28.582Z,100.00
2022-11-13T01:50:00.500Z,100.00
2022-11-13T01:52:32.016Z,100.00
2022-11-13T01:55:03.938Z,100.00
2022-11-13T01:57:35.445Z,100.00
2022-11-13T02:00:07.435Z,100.00
2022-11-13T02:02:38.938Z,100.00
2022-11-13T02:05:10.771Z,100.00
2022-11-13T02:07:42.289Z,100.00
2022-11-13T02:10:14.110Z,100.00
2022-11-13T02:12:45.606Z,100.00
2022-11-13T02:15:17.523Z,100.00
2022-11-13T02:17:49.041Z,100.00
2022-11-13T02:20:20.997Z,100.00
2022-11-13T02:22:52.498Z,100.00
2022-11-13T02:25:24.324Z,100.00
2022-11-13T02:27:55.846Z,100.00
2022-11-13T02:30:27.789Z,100.00
2022-11-13T02:32:59.392Z,100.00
2022-11-13T02:35:31.330Z,100.00
2022-11-13T02:38:02.835Z,100.00
2022-11-13T02:40:34.349Z,100.00
2022-11-13T02:43:05.836Z,100.00
2022-11-13T02:45:38.972Z,100.00
2022-11-13T02:48:10.476Z,100.00
2022-11-13T02:50:42.374Z,100.00
2022-11-13T02:53:13.919Z,100.00
2022-11-13T02:55:45.932Z,100.00
2022-11-13T02:58:17.443Z,100.00
2022-11-13T03:00:49.407Z,100.00
2022-11-13T03:03:41.035Z,100.00
2022-11-13T03:06:12.832Z,100.00
2022-11-13T03:08:44.888Z,100.00
2022-11-13T03:11:16.511Z,100.00
2022-11-13T03:13:48.532Z,100.00
2022-11-13T03:16:20.033Z,100.00
2022-11-13T03:18:51.837Z,100.00
2022-11-13T03:21:23.319Z,100.00
2022-11-13T03:23:55.401Z,100.00
2022-11-13T03:26:30.044Z,100.00
2022-11-13T03:29:01.944Z,100.00
2022-11-13T03:31:33.430Z,100.00
2022-11-13T03:34:05.287Z,100.00
2022-11-13T03:36:36.786Z,100.00
2022-11-13T03:39:08.649Z,100.00
2022-11-13T03:41:40.182Z,100.00
2022-11-13T03:44:12.026Z,100.00
2022-11-13T03:46:43.507Z,100.00
2022-11-13T03:49:15.676Z,100.00
2022-11-13T03:51:47.258Z,100.00
2022-11-13T03:54:19.287Z,100.00
2022-11-13T03:56:50.784Z,100.00
2022-11-13T03:59:22.647Z,100.00
2022-11-13T04:01:54.159Z,100.00
2022-11-13T04:04:26.074Z,100.00
2022-11-13T04:06:57.654Z,100.00
2022-11-13T04:09:29.551Z,100.00
2022-11-13T04:12:01.057Z,100.00
2022-11-13T04:14:32.828Z,100.00
2022-11-13T04:17:04.321Z,100.00
2022-11-13T04:19:36.173Z,100.00
2022-11-13T04:22:07.667Z,100.00
2022-11-13T04:24:39.617Z,100.00
2022-11-13T04:27:11.135Z,100.00
2022-11-13T04:29:43.029Z,100.00
2022-11-13T04:32:14.544Z,100.00
2022-11-13T04:34:46.334Z,100.00
2022-11-13T04:37:17.830Z,100.00
2022-11-13T04:39:49.385Z,100.00
2022-11-13T04:42:39.740Z,100.00
2022-11-13T04:45:12.524Z,100.00
2022-11-13T04:47:44.142Z,100.00
2022-11-13T04:50:16.042Z,100.00
2022-11-13T04:52:47.567Z,100.00
2022-11-13T04:55:19.516Z,100.00
2022-11-13T04:57:51.838Z,100.00
2022-11-13T05:00:23.347Z,100.00
2022-11-13T05:02:55.334Z,100.00
2022-11-13T05:05:26.846Z,100.00
2022-11-13T05:07:58.664Z,100.00
2022-11-13T05:10:30.169Z,100.00
2022-11-13T05:13:02.063Z,100.00
2022-11-13T05:15:33.551Z,100.00
2022-11-13T05:18:05.414Z,100.00
2022-11-13T05:20:37.266Z,100.00
2022-11-13T05:23:09.225Z,100.00
2022-11-13T05:25:40.702Z,100.00
2022-11-13T05:28:12.565Z,100.00
2022-11-13T05:30:44.059Z,100.00
2022-11-13T05:33:16.024Z,100.00
2022-11-13T05:35:47.513Z,100.00
2022-11-13T05:38:19.324Z,100.00
2022-11-13T05:40:50.825Z,100.00
2022-11-13T05:43:22.495Z,100.00
2022-11-13T05:45:53.985Z,100.00
2022-11-13T05:48:26.168Z,100.00
2022-11-13T05:50:57.897Z,100.00
2022-11-13T05:53:30.008Z,100.00
2022-11-13T05:56:01.697Z,100.00
2022-11-13T05:58:33.693Z,100.00
2022-11-13T06:01:05.331Z,100.00
2022-11-13T06:03:37.171Z,100.00
2022-11-13T06:06:08.666Z,100.00
2022-11-13T06:08:40.501Z,100.00
2022-11-13T06:11:12.090Z,100.00
2022-11-13T06:13:44.034Z,100.00
2022-11-13T06:16:15.599Z,100.00
2022-11-13T06:18:47.555Z,100.00
2022-11-13T06:21:19.051Z,100.00
2022-11-13T06:23:50.919Z,100.00
2022-11-13T06:26:22.423Z,100.00
2022-11-13T06:28:54.338Z,100.00
2022-11-13T06:31:25.876Z,100.00
2022-11-13T06:33:57.695Z,100.00
2022-11-13T06:36:29.246Z,100.00
2022-11-13T06:39:01.185Z,100.00
2022-11-13T06:41:32.754Z,100.00
2022-11-13T06:44:04.771Z,100.00
2022-11-13T06:46:36.337Z,100.00
2022-11-13T06:49:08.229Z,100.00
2022-11-13T06:51:39.776Z,100.00
2022-11-13T06:54:11.629Z,100.00
2022-11-13T06:56:45.504Z,100.00
2022-11-13T06:59:17.461Z,100.00
2022-11-13T07:01:49.024Z,100.00
2022-11-13T07:04:20.863Z,100.00
2022-11-13T07:06:52.433Z,100.00
2022-11-13T07:09:24.275Z,100.00
2022-11-13T07:11:55.836Z,100.00
2022-11-13T07:14:27.647Z,100.00
2022-11-13T07:17:09.736Z,100.00
2022-11-13T07:19:42.482Z,100.00
2022-11-13T07:22:13.970Z,100.00
2022-11-13T07:24:45.955Z,100.00
2022-11-13T07:27:17.483Z,100.00
2022-11-13T07:29:49.296Z,100.00
2022-11-13T07:32:20.797Z,100.00
2022-11-13T07:34:52.684Z,100.00
2022-11-13T07:37:24.211Z,100.00
2022-11-13T07:39:56.048Z,100.00
2022-11-13T07:42:27.542Z,100.00
2022-11-13T07:44:59.421Z,100.00
2022-11-13T07:47:30.904Z,100.00
2022-11-13T07:50:08.313Z,100.00
2022-11-13T07:52:42.584Z,100.00
2022-11-13T07:55:14.069Z,100.00
2022-11-13T07:57:45.867Z,100.00
2022-11-13T08:00:17.403Z,100.00
2022-11-13T08:02:49.179Z,100.00
2022-11-13T08:05:20.726Z,100.00
2022-11-13T08:07:52.602Z,100.00
2022-11-13T08:10:24.142Z,100.00
2022-11-13T08:12:55.970Z,100.00
2022-11-13T08:15:27.457Z,100.00
2022-11-13T08:17:59.365Z,100.00
2022-11-13T08:20:30.848Z,100.00
2022-11-13T08:23:02.372Z,100.00
2022-11-13T08:25:34.035Z,100.00
2022-11-13T08:28:10.104Z,100.00
2022-11-13T08:30:44.489Z,100.00
2022-11-13T08:33:16.364Z,100.00
2022-11-13T08:35:47.875Z,100.00
2022-11-13T08:38:19.717Z,100.00
2022-11-13T08:40:51.258Z,100.00
2022-11-13T08:43:23.088Z,100.00
2022-11-13T08:45:55.689Z,100.00
2022-11-13T08:48:27.888Z,100.00
2022-11-13T08:50:59.550Z,100.00
2022-11-13T08:53:31.374Z,100.00
2022-11-13T08:56:02.960Z,100.00
2022-11-13T08:58:34.787Z,100.00
2022-11-13T09:01:06.283Z,100.00
2022-11-13T09:03:38.239Z,100.00
2022-11-13T09:06:09.795Z,100.00
2022-11-13T09:08:41.812Z,100.00
2022-11-13T09:11:13.326Z,100.00
2022-11-13T09:13:48.413Z,100.00
2022-11-13T09:16:22.271Z,100.00
2022-11-13T09:18:54.127Z,100.00
2022-11-13T09:21:26.101Z,100.00
2022-11-13T09:23:57.945Z,100.00
2022-11-13T09:26:29.468Z,100.00
2022-11-13T09:29:01.330Z,100.00
2022-11-13T09:31:33.214Z,100.00
2022-11-13T09:34:04.770Z,100.00
2022-11-13T09:36:36.611Z,100.00
2022-11-13T09:39:08.167Z,100.00
2022-11-13T09:41:40.167Z,100.00
2022-11-13T09:44:11.679Z,100.00
2022-11-13T09:46:43.230Z,100.00
2022-11-13T09:49:15.823Z,100.00
2022-11-13T09:51:47.666Z,100.00
2022-11-13T09:54:19.222Z,100.00
2022-11-13T09:56:51.119Z,99.91
2022-11-13T09:59:23.522Z,99.69
2022-11-13T10:01:55.107Z,100.00
2022-11-13T10:04:26.684Z,100.00
2022-11-13T10:06:58.565Z,99.67
2022-11-13T10:09:30.072Z,99.04
2022-11-13T10:12:03.337Z,99.35
2022-11-13T10:14:34.855Z,99.21
2022-11-13T10:17:07.428Z,98.44
2022-11-13T10:19:38.957Z,97.87
2022-11-13T10:22:32.653Z,97.63
2022-11-13T10:25:02.249Z,96.81
2022-11-13T10:27:34.141Z,97.19
2022-11-13T10:30:05.708Z,96.74
2022-11-13T10:32:37.561Z,96.51
2022-11-13T10:35:09.056Z,95.53
2022-11-13T10:37:41.371Z,95.18
2022-11-13T10:40:12.872Z,96.34
2022-11-13T10:42:44.829Z,95.46
2022-11-13T10:45:16.489Z,95.26
2022-11-13T10:48:03.855Z,94.99
2022-11-13T10:50:36.492Z,93.84
2022-11-13T10:53:08.477Z,92.38
2022-11-13T10:55:40.076Z,90.88
2022-11-13T10:58:11.935Z,91.40
2022-11-13T11:00:47.215Z,90.51
2022-11-13T11:03:18.934Z,89.27
2022-11-13T11:05:50.427Z,89.38
2022-11-13T11:08:22.340Z,89.58
2022-11-13T11:11:13.182Z,88.69
2022-11-13T11:13:44.693Z,86.64
2022-11-13T11:16:16.614Z,84.75
2022-11-13T11:18:48.198Z,85.42
2022-11-13T11:21:20.032Z,85.99
2022-11-13T11:23:55.728Z,88.30
2022-11-13T11:26:27.993Z,88.51
2022-11-13T11:28:59.492Z,88.49
2022-11-13T11:31:31.348Z,89.59
2022-11-13T11:34:02.860Z,89.46
2022-11-13T11:36:34.680Z,89.02
2022-11-13T11:39:06.272Z,89.23
2022-11-13T11:41:38.099Z,89.15
2022-11-13T11:44:09.611Z,89.26
2022-11-13T11:46:46.426Z,89.47
2022-11-13T11:49:18.260Z,89.20
2022-11-13T11:51:50.077Z,88.94
2022-11-13T11:54:21.611Z,90.07
2022-11-13T11:56:54.069Z,90.04
2022-11-13T11:59:25.763Z,88.90
2022-11-13T12:01:57.733Z,89.46
2022-11-13T12:04:29.239Z,88.66
2022-11-13T12:07:01.151Z,88.87
2022-11-13T12:09:32.712Z,87.89
2022-11-13T12:12:04.610Z,87.49
2022-11-13T12:14:36.143Z,87.62
2022-11-13T12:17:16.558Z,87.80
2022-11-13T12:19:48.671Z,87.73
2022-11-13T12:22:20.524Z,86.61
2022-11-13T12:24:52.088Z,85.47
2022-11-13T12:27:23.913Z,85.54
2022-11-13T12:29:55.447Z,84.86
2022-11-13T12:32:27.349Z,84.02
2022-11-13T12:34:58.842Z,83.06
2022-11-13T12:37:31.170Z,82.84
2022-11-13T12:40:02.658Z,82.47
2022-11-13T12:42:34.761Z,82.53
2022-11-13T12:45:06.259Z,81.56
2022-11-13T12:47:38.128Z,81.89
2022-11-13T12:50:09.661Z,83.16
2022-11-13T12:52:41.590Z,81.90
2022-11-13T12:55:13.139Z,81.76
2022-11-13T12:57:44.958Z,81.83
2022-11-13T13:00:16.475Z,81.19
2022-11-13T13:02:48.293Z,80.48
2022-11-13T13:05:19.861Z,80.24
2022-11-13T13:07:51.526Z,80.41
2022-11-13T13:10:23.466Z,80.17
2022-11-13T13:12:55.317Z,80.58
2022-11-13T13:15:26.819Z,80.89
2022-11-13T13:17:58.775Z,80.69
2022-11-13T13:20:30.284Z,80.17
2022-11-13T13:23:05.964Z,81.25
2022-11-13T13:25:39.935Z,81.52
2022-11-13T13:28:11.706Z,82.22
2022-11-13T13:30:43.214Z,82.70
2022-11-13T13:33:14.910Z,82.60
2022-11-13T13:35:46.419Z,83.28
2022-11-13T13:38:18.332Z,83.36
2022-11-13T13:40:49.834Z,82.26
2022-11-13T13:43:21.854Z,82.60
2022-11-13T13:45:53.347Z,82.00
2022-11-13T13:48:25.255Z,81.96
2022-11-13T13:50:56.848Z,82.17
2022-11-13T13:53:28.687Z,81.35
2022-11-13T13:56:00.201Z,82.06
2022-11-13T13:58:32.322Z,82.24
2022-11-13T14:01:20.355Z,82.95
2022-11-13T14:03:52.050Z,83.15
2022-11-13T14:06:23.905Z,83.98
2022-11-13T14:08:55.475Z,85.18
2022-11-13T14:11:29.999Z,85.59
2022-11-13T14:14:01.627Z,86.57
2022-11-13T14:16:33.441Z,86.63
2022-11-13T14:19:05.001Z,86.59
2022-11-13T14:21:36.523Z,87.33
2022-11-13T14:24:08.038Z,87.35
2022-11-13T14:26:39.953Z,88.51
2022-11-13T14:29:11.482Z,88.60
2022-11-13T14:31:43.004Z,88.63
2022-11-13T14:34:14.502Z,89.49
2022-11-13T14:36:46.431Z,90.71
2022-11-13T14:39:17.944Z,90.86
2022-11-13T14:41:49.833Z,91.26
2022-11-13T14:44:21.411Z,92.44
2022-11-13T14:46:52.936Z,93.09
2022-11-13T14:49:24.437Z,93.25
2022-11-13T14:51:56.410Z,93.60
2022-11-13T14:54:29.139Z,94.67
2022-11-13T14:57:05.391Z,94.95
2022-11-13T14:59:37.044Z,96.00
2022-11-13T15:02:08.560Z,96.80
2022-11-13T15:04:40.820Z,96.47
2022-11-13T15:07:12.575Z,97.31
2022-11-13T15:09:44.115Z,98.37
2022-11-13T15:12:16.048Z,99.70
2022-11-13T15:14:47.526Z,99.95
2022-11-13T15:17:19.751Z,100.00
2022-11-13T15:19:51.231Z,100.00
2022-11-13T15:22:27.460Z,100.00
2022-11-13T15:24:59.776Z,100.00
2022-11-13T15:27:31.782Z,100.00
2022-11-13T15:30:03.301Z,100.00
2022-11-13T15:32:35.396Z,100.00
2022-11-13T15:35:06.931Z,100.00
2022-11-13T15:37:39.013Z,100.00
2022-11-13T15:40:10.545Z,100.00
2022-11-13T15:42:43.657Z,100.00
2022-11-13T15:45:15.390Z,100.00
2022-11-13T15:47:47.502Z,100.00
2022-11-13T15:50:18.972Z,100.00
2022-11-13T15:52:50.550Z,100.00
2022-11-13T15:55:22.129Z,100.00
2022-11-13T15:57:54.017Z,100.00
2022-11-13T16:00:25.585Z,100.00
2022-11-13T16:02:57.500Z,100.00
2022-11-13T16:05:29.787Z,100.00
2022-11-13T16:08:01.314Z,100.00
2022-11-13T16:10:33.182Z,100.00
2022-11-13T16:13:05.086Z,100.00
2022-11-13T16:15:37.002Z,100.00
2022-11-13T16:18:08.465Z,100.00
2022-11-13T16:20:40.433Z,100.00
2022-11-13T16:23:11.917Z,100.00
2022-11-13T16:25:43.776Z,100.00
2022-11-13T16:28:15.502Z,100.00
2022-11-13T16:30:47.627Z,100.00
2022-11-13T16:33:19.203Z,100.00
2022-11-13T16:35:51.086Z,100.00
2022-11-13T16:38:22.557Z,100.00
2022-11-13T16:40:54.058Z,100.00
2022-11-13T16:43:25.879Z,100.00
2022-11-13T16:45:57.981Z,100.00
2022-11-13T16:48:29.640Z,100.00
2022-11-13T16:51:01.572Z,100.00
2022-11-13T16:53:33.065Z,100.00
2022-11-13T16:56:04.733Z,100.00
2022-11-13T16:58:36.205Z,100.00
2022-11-13T17:01:08.039Z,100.00
2022-11-13T17:03:39.590Z,100.00
2022-11-13T17:06:11.404Z,100.00
2022-11-13T17:08:43.203Z,100.00
2022-11-13T17:11:15.550Z,100.00
2022-11-13T17:13:47.242Z,100.00
2022-11-13T17:16:18.767Z,100.00
2022-11-13T17:18:51.959Z,100.00
2022-11-13T17:21:23.462Z,100.00
2022-11-13T17:23:55.247Z,100.00
2022-11-13T17:26:27.019Z,100.00
2022-11-13T17:28:59.857Z,100.00
2022-11-13T17:31:31.653Z,100.00
2022-11-13T17:34:03.180Z,100.00
2022-11-13T17:36:34.967Z,100.00
2022-11-13T17:39:06.413Z,100.00
2022-11-13T17:41:38.533Z,100.00
2022-11-13T17:44:09.990Z,100.00
2022-11-13T17:46:41.779Z,100.00
2022-11-13T17:49:13.258Z,100.00
2022-11-13T17:51:45.108Z,100.00
2022-11-13T17:54:16.735Z,100.00
2022-11-13T17:56:48.653Z,100.00
2022-11-13T17:59:20.131Z,100.00
2022-11-13T18:01:51.964Z,100.00
2022-11-13T18:04:23.637Z,100.00
2022-11-13T18:06:55.674Z,100.00
2022-11-13T18:09:27.261Z,100.00
2022-11-13T18:11:59.379Z,100.00
2022-11-13T18:14:31.187Z,100.00
2022-11-13T18:17:03.071Z,100.00
2022-11-13T18:19:34.592Z,100.00
2022-11-13T18:22:06.142Z,100.00
2022-11-13T18:24:37.745Z,100.00
2022-11-13T18:27:09.807Z,100.00
2022-11-13T18:29:41.416Z,100.00
2022-11-13T18:32:13.212Z,100.00
2022-11-13T18:34:45.034Z,100.00
2022-11-13T18:37:16.692Z,100.00
2022-11-13T18:39:48.494Z,100.00
2022-11-13T18:42:20.007Z,100.00
2022-11-13T18:44:51.789Z,100.00
2022-11-13T18:47:23.262Z,100.00
2022-11-13T18:49:55.153Z,100.00
2022-11-13T18:52:26.615Z,100.00
2022-11-13T18:54:58.394Z,100.00
2022-11-13T18:57:29.884Z,100.00
2022-11-13T19:00:01.707Z,100.00
2022-11-13T19:02:33.182Z,100.00
2022-11-13T19:05:04.701Z,100.00
2022-11-13T19:07:37.229Z,100.00
2022-11-13T19:10:09.053Z,100.00
2022-11-13T19:12:40.696Z,100.00
2022-11-13T19:15:12.180Z,100.00
2022-11-13T19:17:43.660Z,100.00
2022-11-13T19:20:18.125Z,100.00
2022-11-13T19:22:49.667Z,100.00
2022-11-13T19:25:21.740Z,100.00
2022-11-13T19:27:54.264Z,100.00
2022-11-13T19:30:26.065Z,100.00
2022-11-13T19:32:57.546Z,100.00
2022-11-13T19:35:33.727Z,100.00
2022-11-13T19:38:05.275Z,100.00
2022-11-13T19:40:36.768Z,100.00
2022-11-13T19:43:08.259Z,100.00
2022-11-13T19:45:40.101Z,100.00
2022-11-13T19:48:16.135Z,100.00
2022-11-13T19:50:49.788Z,100.00
2022-11-13T19:53:21.273Z,100.00
2022-11-13T19:55:53.200Z,100.00
2022-11-13T19:58:24.763Z,100.00
2022-11-13T20:00:56.823Z,100.00
2022-11-13T20:03:28.380Z,100.00
2022-11-13T20:06:01.511Z,100.00
2022-11-13T20:08:33.295Z,100.00
2022-11-13T20:11:05.066Z,100.00
2022-11-13T20:13:36.722Z,100.00
2022-11-13T20:16:08.576Z,100.00
2022-11-13T20:18:40.196Z,100.00
2022-11-13T20:21:12.117Z,100.00
2022-11-13T20:23:43.604Z,100.00
2022-11-13T20:26:16.987Z,100.00
2022-11-13T20:28:48.487Z,100.00
2022-11-13T20:31:20.598Z,100.00
2022-11-13T20:33:52.635Z,100.00
2022-11-13T20:36:24.694Z,100.00
2022-11-13T20:38:56.188Z,100.00
2022-11-13T20:41:28.378Z,100.00
2022-11-13T20:44:01.906Z,100.00
2022-11-13T20:46:33.544Z,100.00
2022-11-13T20:49:05.042Z,100.00
2022-11-13T20:51:36.954Z,100.00
2022-11-13T20:54:08.552Z,100.00
2022-11-13T20:56:40.477Z,100.00
2022-11-13T20:59:11.982Z,100.00
2022-11-13T21:01:43.867Z,100.00
2022-11-13T21:04:15.373Z,100.00
2022-11-13T21:06:47.938Z,100.00
2022-11-13T21:09:19.483Z,100.00
2022-11-13T21:14:51.337Z,100.00
2022-11-13T21:17:22.864Z,100.00
2022-11-13T21:19:57.545Z,100.00
2022-11-13T21:22:29.356Z,100.00
2022-11-13T21:25:01.269Z,100.00
2022-11-13T21:27:32.823Z,100.00
2022-11-13T21:30:04.684Z,100.00
2022-11-13T21:32:36.238Z,100.00
2022-11-13T21:35:08.122Z,100.00
2022-11-13T21:37:39.657Z,100.00
2022-11-13T21:40:11.566Z,100.00
2022-11-13T21:42:43.078Z,100.00
2022-11-13T21:45:14.916Z,100.00
2022-11-13T21:47:46.440Z,100.00
2022-11-13T21:50:18.303Z,100.00
2022-11-13T21:52:49.813Z,100.00
2022-11-13T21:55:21.857Z,100.00
2022-11-13T21:57:54.172Z,100.00
2022-11-13T22:00:26.193Z,100.00
2022-11-13T22:02:57.739Z,100.00
2022-11-13T22:05:29.547Z,100.00
2022-11-13T22:08:01.050Z,100.00
2022-11-13T22:10:33.071Z,100.00
2022-11-13T22:13:04.566Z,100.00
2022-11-13T22:15:36.387Z,100.00
2022-11-13T22:18:07.920Z,100.00
2022-11-13T22:20:39.757Z,100.00
2022-11-13T22:23:11.296Z,100.00
2022-11-13T22:25:43.361Z,100.00
2022-11-13T22:28:14.908Z,100.00
2022-11-13T22:30:46.771Z,100.00
2022-11-13T22:33:18.284Z,100.00
2022-11-13T22:35:50.170Z,100.00
2022-11-13T22:38:21.681Z,100.00
2022-11-13T22:40:53.495Z,100.00
2022-11-13T22:43:24.995Z,100.00
2022-11-13T22:45:56.807Z,100.00
2022-11-13T22:48:28.671Z,100.00
2022-11-13T22:51:00.647Z,100.00
2022-11-13T22:53:32.183Z,100.00
2022-11-13T22:56:03.783Z,100.00
2022-11-13T22:58:35.321Z,100.00
2022-11-13T23:01:07.299Z,100.00
2022-11-13T23:03:38.914Z,100.00
2022-11-13T23:06:10.920Z,100.00
2022-11-13T23:08:42.476Z,100.00
2022-11-13T23:11:14.328Z,100.00
2022-11-13T23:13:45.839Z,100.00
2022-11-13T23:16:17.794Z,100.00
2022-11-13T23:18:49.319Z,100.00
2022-11-13T23:21:21.271Z,100.00
2022-11-13T23:23:52.774Z,100.00
2022-11-13T23:26:24.596Z,100.00
2022-11-13T23:28:56.120Z,100.00
2022-11-13T23:31:27.600Z,100.00
2022-11-13T23:33:59.433Z,100.00
2022-11-13T23:36:31.409Z,100.00
2022-11-13T23:39:03.214Z,100.00
2022-11-13T23:41:34.734Z,100.00
2022-11-13T23:44:09.274Z,100.00
2022-11-13T23:46:41.196Z,100.00
2022-11-13T23:49:13.075Z,100.00
2022-11-13T23:51:44.670Z,100.00
2022-11-13T23:54:16.541Z,100.00
2022-11-13T23:56:48.060Z,100.00
2022-11-13T23:59:19.890Z,100.00
